Terminal Aerodrome Forecast
Issued by NWS Greer, SC

Home | Current Version | Previous Version | Text Only | Print | Product List | Glossary On
Versions: 1 2 3 4 5 6 7 8 9 10 11 12
463
FTUS42 KGSP 231501 AAC
TAFGSP
TAF AMD
KGSP 231501Z 2315/2412 05012G20KT 5SM SHRA BR OVC008
     FM232100 04012G21KT 2SM SHRA OVC005
     FM240000 03011G19KT 6SM SHRA OVC008
     FM240500 04012G20KT 4SM SHRA BR OVC003=

USA.gov is the U.S. government's official web portal to all federal, state and local government web resources and services.